sensor_id;sensor_type;location;lat;lon;timestamp;pressure;altitude;pressure_sealevel;temperature;humidity
20023;BME280;10172;42.054;24.546;2023-01-27T00:00:11;97425.69;;;2.99;100.00
20023;BME280;10172;42.054;24.546;2023-01-27T00:02:37;97441.38;;;3.50;100.00
20023;BME280;10172;42.054;24.546;2023-01-27T00:05:03;97430.59;;;2.36;100.00
20023;BME280;10172;42.054;24.546;2023-01-27T00:07:29;97430.94;;;2.99;100.00
20023;BME280;10172;42.054;24.546;2023-01-27T00:09:54;97416.88;;;3.66;100.00
20023;BME280;10172;42.054;24.546;2023-01-27T00:12:22;97393.16;;;3.67;100.00
20023;BME280;10172;42.054;24.546;2023-01-27T00:15:07;97419.47;;;4.30;100.00
20023;BME280;10172;42.054;24.546;2023-01-27T00:17:33;97336.78;;;3.40;100.00
20023;BME280;10172;42.054;24.546;2023-01-27T00:19:59;97452.22;;;2.94;100.00
20023;BME280;10172;42.054;24.546;2023-01-27T00:22:25;97408.63;;;2.90;100.00
20023;BME280;10172;42.054;24.546;2023-01-27T00:25:09;97446.38;;;2.71;100.00
20023;BME280;10172;42.054;24.546;2023-01-27T00:27:34;97386.56;;;2.24;100.00
20023;BME280;10172;42.054;24.546;2023-01-27T00:30:00;97425.56;;;1.96;100.00
20023;BME280;10172;42.054;24.546;2023-01-27T00:32:28;97417.06;;;1.54;100.00
20023;BME280;10172;42.054;24.546;2023-01-27T00:35:12;97414.13;;;1.78;100.00
20023;BME280;10172;42.054;24.546;2023-01-27T00:37:40;97414.34;;;1.74;100.00
20023;BME280;10172;42.054;24.546;2023-01-27T00:40:06;97411.88;;;1.52;100.00
20023;BME280;10172;42.054;24.546;2023-01-27T00:42:32;97351.59;;;1.34;100.00
20023;BME280;10172;42.054;24.546;2023-01-27T00:44:57;97382.88;;;1.93;100.00
20023;BME280;10172;42.054;24.546;2023-01-27T00:47:41;97402.94;;;3.32;100.00
20023;BME280;10172;42.054;24.546;2023-01-27T00:50:07;97415.56;;;3.90;100.00
20023;BME280;10172;42.054;24.546;2023-01-27T00:52:32;97399.34;;;4.13;100.00
20023;BME280;10172;42.054;24.546;2023-01-27T00:54:58;97406.50;;;3.14;100.00
20023;BME280;10172;42.054;24.546;2023-01-27T00:57:23;97386.44;;;3.77;100.00
20023;BME280;10172;42.054;24.546;2023-01-27T00:59:49;97368.97;;;3.76;100.00
20023;BME280;10172;42.054;24.546;2023-01-27T01:02:15;97396.34;;;4.19;100.00
20023;BME280;10172;42.054;24.546;2023-01-27T01:04:40;97358.59;;;4.04;100.00
20023;BME280;10172;42.054;24.546;2023-01-27T01:07:06;97320.22;;;2.89;100.00
20023;BME280;10172;42.054;24.546;2023-01-27T01:09:31;97314.81;;;2.92;100.00
20023;BME280;10172;42.054;24.546;2023-01-27T01:11:57;97377.53;;;3.64;100.00
20023;BME280;10172;42.054;24.546;2023-01-27T01:14:22;97364.22;;;2.34;100.00
20023;BME280;10172;42.054;24.546;2023-01-27T01:16:48;97386.31;;;2.65;100.00
20023;BME280;10172;42.054;24.546;2023-01-27T01:19:13;97364.38;;;3.16;100.00
20023;BME280;10172;42.054;24.546;2023-01-27T01:21:39;97375.66;;;3.82;100.00
20023;BME280;10172;42.054;24.546;2023-01-27T01:24:05;97391.78;;;4.22;100.00
20023;BME280;10172;42.054;24.546;2023-01-27T01:26:30;97392.94;;;4.48;100.00
20023;BME280;10172;42.054;24.546;2023-01-27T01:28:56;97323.91;;;4.43;100.00
20023;BME280;10172;42.054;24.546;2023-01-27T01:31:21;97377.97;;;4.49;100.00
20023;BME280;10172;42.054;24.546;2023-01-27T01:33:47;97322.13;;;3.03;100.00
20023;BME280;10172;42.054;24.546;2023-01-27T01:36:15;97378.16;;;3.36;100.00
20023;BME280;10172;42.054;24.546;2023-01-27T01:38:41;97333.69;;;2.83;100.00
20023;BME280;10172;42.054;24.546;2023-01-27T01:41:10;97381.94;;;3.15;100.00
20023;BME280;10172;42.054;24.546;2023-01-27T01:43:37;97355.47;;;3.03;100.00
20023;BME280;10172;42.054;24.546;2023-01-27T01:46:03;97369.41;;;1.81;100.00
20023;BME280;10172;42.054;24.546;2023-01-27T01:48:34;97358.91;;;3.03;100.00
20023;BME280;10172;42.054;24.546;2023-01-27T01:51:12;97358.91;;;3.03;100.00
20023;BME280;10172;42.054;24.546;2023-01-27T01:56:49;97380.22;;;2.64;100.00
20023;BME280;10172;42.054;24.546;2023-01-27T01:59:28;97368.44;;;1.47;100.00
20023;BME280;10172;42.054;24.546;2023-01-27T02:01:56;97370.47;;;1.96;100.00
20023;BME280;10172;42.054;24.546;2023-01-27T02:04:25;97367.38;;;2.24;100.00
20023;BME280;10172;42.054;24.546;2023-01-27T02:07:26;97352.91;;;2.15;100.00
20023;BME280;10172;42.054;24.546;2023-01-27T02:09:54;97332.84;;;2.66;100.00
20023;BME280;10172;42.054;24.546;2023-01-27T02:12:20;97332.41;;;2.23;100.00
20023;BME280;10172;42.054;24.546;2023-01-27T02:14:46;97317.88;;;2.16;100.00
20023;BME280;10172;42.054;24.546;2023-01-27T02:17:12;97311.06;;;1.95;100.00
20023;BME280;10172;42.054;24.546;2023-01-27T02:28:05;97292.47;;;1.83;100.00
20023;BME280;10172;42.054;24.546;2023-01-27T02:30:31;97294.09;;;1.31;100.00
20023;BME280;10172;42.054;24.546;2023-01-27T02:32:57;97286.47;;;1.07;100.00
20023;BME280;10172;42.054;24.546;2023-01-27T02:35:33;97302.03;;;1.10;100.00
20023;BME280;10172;42.054;24.546;2023-01-27T02:38:02;97240.41;;;0.26;100.00
20023;BME280;10172;42.054;24.546;2023-01-27T02:40:28;97310.53;;;0.97;100.00
20023;BME280;10172;42.054;24.546;2023-01-27T02:42:55;97263.69;;;0.32;100.00
20023;BME280;10172;42.054;24.546;2023-01-27T02:45:22;97289.69;;;0.75;100.00
20023;BME280;10172;42.054;24.546;2023-01-27T02:47:47;97275.03;;;1.08;100.00
20023;BME280;10172;42.054;24.546;2023-01-27T02:50:13;97288.34;;;0.85;100.00
20023;BME280;10172;42.054;24.546;2023-01-27T02:52:38;97270.84;;;1.42;100.00
20023;BME280;10172;42.054;24.546;2023-01-27T02:55:04;97261.41;;;2.26;100.00
20023;BME280;10172;42.054;24.546;2023-01-27T02:57:30;97275.78;;;1.66;100.00
20023;BME280;10172;42.054;24.546;2023-01-27T02:59:55;97270.56;;;1.48;100.00
20023;BME280;10172;42.054;24.546;2023-01-27T03:02:21;97229.22;;;1.36;100.00
20023;BME280;10172;42.054;24.546;2023-01-27T03:04:48;97276.78;;;1.64;100.00
20023;BME280;10172;42.054;24.546;2023-01-27T03:07:14;97256.56;;;1.11;100.00
20023;BME280;10172;42.054;24.546;2023-01-27T03:09:39;97283.94;;;1.96;100.00
20023;BME280;10172;42.054;24.546;2023-01-27T03:12:05;97281.06;;;0.92;100.00
20023;BME280;10172;42.054;24.546;2023-01-27T03:14:49;97263.91;;;1.41;100.00
20023;BME280;10172;42.054;24.546;2023-01-27T03:17:35;97225.94;;;1.13;100.00
20023;BME280;10172;42.054;24.546;2023-01-27T03:20:19;97274.28;;;1.06;100.00
20023;BME280;10172;42.054;24.546;2023-01-27T03:22:44;97269.88;;;1.07;100.00
20023;BME280;10172;42.054;24.546;2023-01-27T03:25:10;97264.91;;;0.82;100.00
20023;BME280;10172;42.054;24.546;2023-01-27T03:27:35;97277.75;;;1.26;100.00
20023;BME280;10172;42.054;24.546;2023-01-27T03:30:02;97219.72;;;0.97;100.00
20023;BME280;10172;42.054;24.546;2023-01-27T03:32:29;97282.03;;;0.89;100.00
20023;BME280;10172;42.054;24.546;2023-01-27T03:34:55;97275.97;;;0.70;100.00
20023;BME280;10172;42.054;24.546;2023-01-27T03:37:25;97283.63;;;0.34;100.00
20023;BME280;10172;42.054;24.546;2023-01-27T03:40:11;97274.25;;;0.69;100.00
20023;BME280;10172;42.054;24.546;2023-01-27T03:42:55;97257.88;;;1.22;100.00
20023;BME280;10172;42.054;24.546;2023-01-27T03:45:49;97260.72;;;1.53;100.00
20023;BME280;10172;42.054;24.546;2023-01-27T03:48:34;97276.28;;;0.81;100.00
20023;BME280;10172;42.054;24.546;2023-01-27T03:51:03;97267.91;;;0.93;100.00
20023;BME280;10172;42.054;24.546;2023-01-27T03:53:29;97208.44;;;0.95;100.00
20023;BME280;10172;42.054;24.546;2023-01-27T03:55:54;97268.63;;;1.15;100.00
20023;BME280;10172;42.054;24.546;2023-01-27T03:58:23;97262.19;;;0.65;100.00
20023;BME280;10172;42.054;24.546;2023-01-27T04:00:56;97289.97;;;1.06;100.00
20023;BME280;10172;42.054;24.546;2023-01-27T04:03:24;97231.47;;;0.89;100.00
20023;BME280;10172;42.054;24.546;2023-01-27T04:06:13;97264.66;;;1.97;100.00
20023;BME280;10172;42.054;24.546;2023-01-27T04:08:58;97269.38;;;1.72;100.00
20023;BME280;10172;42.054;24.546;2023-01-27T04:11:24;97252.13;;;1.13;100.00
20023;BME280;10172;42.054;24.546;2023-01-27T04:14:09;97254.75;;;1.13;100.00
20023;BME280;10172;42.054;24.546;2023-01-27T04:16:36;97215.34;;;1.34;100.00
20023;BME280;10172;42.054;24.546;2023-01-27T04:19:07;97267.00;;;1.67;100.00
20023;BME280;10172;42.054;24.546;2023-01-27T04:21:33;97255.88;;;1.27;100.00
20023;BME280;10172;42.054;24.546;2023-01-27T04:23:59;97258.19;;;0.77;100.00
20023;BME280;10172;42.054;24.546;2023-01-27T04:26:26;97174.31;;;0.41;100.00
20023;BME280;10172;42.054;24.546;2023-01-27T04:28:58;97236.66;;;1.45;100.00
20023;BME280;10172;42.054;24.546;2023-01-27T04:31:25;97252.84;;;1.53;100.00
20023;BME280;10172;42.054;24.546;2023-01-27T04:33:50;97234.75;;;1.48;100.00
20023;BME280;10172;42.054;24.546;2023-01-27T04:36:16;97240.63;;;2.22;100.00
20023;BME280;10172;42.054;24.546;2023-01-27T04:38:41;97159.84;;;2.11;100.00
20023;BME280;10172;42.054;24.546;2023-01-27T04:41:07;97226.19;;;2.30;100.00
20023;BME280;10172;42.054;24.546;2023-01-27T04:43:32;97219.50;;;2.90;100.00
20023;BME280;10172;42.054;24.546;2023-01-27T04:45:58;97205.78;;;3.01;100.00
20023;BME280;10172;42.054;24.546;2023-01-27T04:48:23;97218.91;;;3.01;100.00
20023;BME280;10172;42.054;24.546;2023-01-27T04:50:49;97220.44;;;3.05;100.00
20023;BME280;10172;42.054;24.546;2023-01-27T04:53:14;97214.63;;;2.67;100.00
20023;BME280;10172;42.054;24.546;2023-01-27T04:55:42;97248.31;;;2.59;100.00
20023;BME280;10172;42.054;24.546;2023-01-27T04:58:12;97189.69;;;2.43;100.00
20023;BME280;10172;42.054;24.546;2023-01-27T05:00:37;97236.66;;;3.13;100.00
20023;BME280;10172;42.054;24.546;2023-01-27T05:03:03;97264.94;;;3.08;100.00
20023;BME280;10172;42.054;24.546;2023-01-27T05:05:30;97245.34;;;2.98;100.00
20023;BME280;10172;42.054;24.546;2023-01-27T05:07:56;97229.09;;;3.07;100.00
20023;BME280;10172;42.054;24.546;2023-01-27T05:10:26;97207.03;;;3.56;100.00
20023;BME280;10172;42.054;24.546;2023-01-27T05:12:51;97270.22;;;4.30;100.00
20023;BME280;10172;42.054;24.546;2023-01-27T05:15:17;97266.50;;;3.59;100.00
20023;BME280;10172;42.054;24.546;2023-01-27T05:17:42;97217.06;;;3.34;100.00
20023;BME280;10172;42.054;24.546;2023-01-27T05:20:08;97217.56;;;2.94;100.00
20023;BME280;10172;42.054;24.546;2023-01-27T05:22:33;97270.25;;;2.91;100.00
20023;BME280;10172;42.054;24.546;2023-01-27T05:24:59;97255.38;;;3.23;100.00
20023;BME280;10172;42.054;24.546;2023-01-27T05:27:24;97269.38;;;3.70;100.00
20023;BME280;10172;42.054;24.546;2023-01-27T05:29:50;97275.28;;;3.74;100.00
20023;BME280;10172;42.054;24.546;2023-01-27T05:32:15;97279.72;;;3.42;100.00
20023;BME280;10172;42.054;24.546;2023-01-27T05:34:41;97267.19;;;1.63;100.00
20023;BME280;10172;42.054;24.546;2023-01-27T05:37:06;97278.97;;;2.24;100.00
20023;BME280;10172;42.054;24.546;2023-01-27T05:39:32;97273.59;;;2.45;100.00
20023;BME280;10172;42.054;24.546;2023-01-27T05:41:57;97260.03;;;2.69;100.00
20023;BME280;10172;42.054;24.546;2023-01-27T05:44:22;97251.66;;;3.42;100.00
20023;BME280;10172;42.054;24.546;2023-01-27T05:46:48;97271.31;;;3.67;100.00
20023;BME280;10172;42.054;24.546;2023-01-27T05:49:13;97219.06;;;2.50;100.00
20023;BME280;10172;42.054;24.546;2023-01-27T05:51:39;97283.84;;;3.30;100.00
20023;BME280;10172;42.054;24.546;2023-01-27T05:54:05;97279.63;;;3.75;100.00
20023;BME280;10172;42.054;24.546;2023-01-27T05:56:31;97285.94;;;4.02;100.00
20023;BME280;10172;42.054;24.546;2023-01-27T05:58:57;97277.03;;;4.34;100.00
20023;BME280;10172;42.054;24.546;2023-01-27T06:01:25;97274.34;;;3.28;100.00
20023;BME280;10172;42.054;24.546;2023-01-27T06:03:51;97260.44;;;2.94;100.00
20023;BME280;10172;42.054;24.546;2023-01-27T06:06:19;97276.75;;;2.51;100.00
20023;BME280;10172;42.054;24.546;2023-01-27T06:08:45;97270.50;;;1.31;100.00
20023;BME280;10172;42.054;24.546;2023-01-27T06:11:11;97267.50;;;1.02;100.00
20023;BME280;10172;42.054;24.546;2023-01-27T06:13:37;97256.25;;;1.55;100.00
20023;BME280;10172;42.054;24.546;2023-01-27T06:16:11;97274.53;;;2.26;100.00
20023;BME280;10172;42.054;24.546;2023-01-27T06:18:37;97267.25;;;2.31;100.00
20023;BME280;10172;42.054;24.546;2023-01-27T06:21:05;97258.28;;;2.53;100.00
20023;BME280;10172;42.054;24.546;2023-01-27T06:23:31;97258.84;;;3.23;100.00
20023;BME280;10172;42.054;24.546;2023-01-27T06:26:00;97262.88;;;2.97;100.00
20023;BME280;10172;42.054;24.546;2023-01-27T06:28:28;97219.22;;;2.47;100.00
20023;BME280;10172;42.054;24.546;2023-01-27T06:30:53;97265.84;;;2.24;100.00
20023;BME280;10172;42.054;24.546;2023-01-27T06:33:19;97279.16;;;2.21;100.00
20023;BME280;10172;42.054;24.546;2023-01-27T06:35:44;97275.91;;;2.33;100.00
20023;BME280;10172;42.054;24.546;2023-01-27T06:38:11;97287.22;;;1.83;100.00
20023;BME280;10172;42.054;24.546;2023-01-27T06:40:38;97276.03;;;1.79;100.00
20023;BME280;10172;42.054;24.546;2023-01-27T06:43:12;97281.69;;;2.06;100.00
20023;BME280;10172;42.054;24.546;2023-01-27T06:45:40;97269.25;;;1.92;100.00
20023;BME280;10172;42.054;24.546;2023-01-27T06:48:06;97265.44;;;1.63;100.00
20023;BME280;10172;42.054;24.546;2023-01-27T06:50:32;97269.28;;;2.09;100.00
20023;BME280;10172;42.054;24.546;2023-01-27T06:53:03;97278.53;;;2.83;100.00
20023;BME280;10172;42.054;24.546;2023-01-27T06:55:29;97278.22;;;2.22;100.00
20023;BME280;10172;42.054;24.546;2023-01-27T06:57:55;97239.94;;;1.31;100.00
20023;BME280;10172;42.054;24.546;2023-01-27T07:00:21;97287.94;;;1.86;100.00
20023;BME280;10172;42.054;24.546;2023-01-27T07:02:46;97271.56;;;1.81;100.00
20023;BME280;10172;42.054;24.546;2023-01-27T07:05:12;97271.91;;;2.26;100.00
20023;BME280;10172;42.054;24.546;2023-01-27T07:07:38;97291.19;;;2.42;100.00
20023;BME280;10172;42.054;24.546;2023-01-27T07:10:05;97281.38;;;1.95;100.00
20023;BME280;10172;42.054;24.546;2023-01-27T07:12:31;97245.34;;;1.81;100.00
20023;BME280;10172;42.054;24.546;2023-01-27T07:14:58;97276.16;;;1.76;100.00
20023;BME280;10172;42.054;24.546;2023-01-27T07:17:24;97282.81;;;1.47;100.00
20023;BME280;10172;42.054;24.546;2023-01-27T07:19:50;97259.53;;;1.41;100.00
20023;BME280;10172;42.054;24.546;2023-01-27T07:22:15;97273.00;;;1.34;100.00
20023;BME280;10172;42.054;24.546;2023-01-27T07:24:40;97275.31;;;1.58;100.00
20023;BME280;10172;42.054;24.546;2023-01-27T07:45:00;97292.19;;;2.23;100.00
20023;BME280;10172;42.054;24.546;2023-01-27T07:47:25;97284.06;;;2.62;100.00
20023;BME280;10172;42.054;24.546;2023-01-27T07:49:51;97299.84;;;2.10;100.00
20023;BME280;10172;42.054;24.546;2023-01-27T07:52:20;97297.63;;;1.84;100.00
20023;BME280;10172;42.054;24.546;2023-01-27T07:54:45;97301.56;;;1.57;100.00
20023;BME280;10172;42.054;24.546;2023-01-27T07:57:11;97286.16;;;1.51;100.00
20023;BME280;10172;42.054;24.546;2023-01-27T07:59:37;97301.84;;;1.69;100.00
20023;BME280;10172;42.054;24.546;2023-01-27T08:02:02;97293.50;;;1.61;100.00
20023;BME280;10172;42.054;24.546;2023-01-27T08:04:28;97297.00;;;1.79;100.00
20023;BME280;10172;42.054;24.546;2023-01-27T08:06:53;97290.16;;;1.94;100.00
20023;BME280;10172;42.054;24.546;2023-01-27T08:09:18;97275.13;;;2.31;100.00
20023;BME280;10172;42.054;24.546;2023-01-27T08:11:44;97274.69;;;2.40;100.00
20023;BME280;10172;42.054;24.546;2023-01-27T08:14:09;97274.50;;;2.43;100.00
20023;BME280;10172;42.054;24.546;2023-01-27T08:16:35;97272.28;;;2.86;100.00
20023;BME280;10172;42.054;24.546;2023-01-27T08:35:53;97272.56;;;2.97;100.00
20023;BME280;10172;42.054;24.546;2023-01-27T08:38:19;97262.41;;;3.22;100.00
20023;BME280;10172;42.054;24.546;2023-01-27T08:40:46;97269.47;;;3.53;100.00
20023;BME280;10172;42.054;24.546;2023-01-27T08:43:12;97271.47;;;3.63;100.00
20023;BME280;10172;42.054;24.546;2023-01-27T08:45:40;97280.13;;;3.50;100.00
20023;BME280;10172;42.054;24.546;2023-01-27T08:48:06;97268.34;;;3.41;100.00
20023;BME280;10172;42.054;24.546;2023-01-27T08:50:32;97268.00;;;3.63;100.00
20023;BME280;10172;42.054;24.546;2023-01-27T08:52:57;97258.75;;;3.25;100.00
20023;BME280;10172;42.054;24.546;2023-01-27T08:55:28;97261.31;;;3.26;100.00
20023;BME280;10172;42.054;24.546;2023-01-27T08:57:54;97261.31;;;3.42;100.00
20023;BME280;10172;42.054;24.546;2023-01-27T09:00:20;97257.91;;;3.71;100.00
20023;BME280;10172;42.054;24.546;2023-01-27T09:02:46;97256.72;;;4.06;100.00
20023;BME280;10172;42.054;24.546;2023-01-27T09:05:12;97255.28;;;4.01;100.00
20023;BME280;10172;42.054;24.546;2023-01-27T09:07:37;97251.06;;;3.98;100.00
20023;BME280;10172;42.054;24.546;2023-01-27T09:10:03;97248.69;;;4.53;100.00
20023;BME280;10172;42.054;24.546;2023-01-27T09:12:29;97247.38;;;5.03;100.00
20023;BME280;10172;42.054;24.546;2023-01-27T09:14:54;97252.03;;;5.40;100.00
20023;BME280;10172;42.054;24.546;2023-01-27T09:17:23;97249.13;;;5.85;100.00
20023;BME280;10172;42.054;24.546;2023-01-27T09:19:48;97228.69;;;6.01;100.00
20023;BME280;10172;42.054;24.546;2023-01-27T09:22:14;97238.84;;;6.08;100.00
20023;BME280;10172;42.054;24.546;2023-01-27T09:24:39;97238.88;;;6.33;100.00
20023;BME280;10172;42.054;24.546;2023-01-27T09:27:05;97228.03;;;5.98;100.00
20023;BME280;10172;42.054;24.546;2023-01-27T09:29:30;97229.53;;;6.02;100.00
20023;BME280;10172;42.054;24.546;2023-01-27T09:31:56;97229.25;;;6.19;100.00
20023;BME280;10172;42.054;24.546;2023-01-27T09:34:21;97223.38;;;6.41;100.00
20023;BME280;10172;42.054;24.546;2023-01-27T09:36:53;97216.75;;;5.82;100.00
20023;BME280;10172;42.054;24.546;2023-01-27T09:39:21;97221.75;;;5.19;100.00
20023;BME280;10172;42.054;24.546;2023-01-27T09:44:47;97220.56;;;5.51;100.00
20023;BME280;10172;42.054;24.546;2023-01-27T09:47:24;97212.25;;;6.11;100.00
20023;BME280;10172;42.054;24.546;2023-01-27T09:58:18;97203.63;;;6.34;100.00
20023;BME280;10172;42.054;24.546;2023-01-27T10:11:25;97198.88;;;6.89;100.00
20023;BME280;10172;42.054;24.546;2023-01-27T10:14:33;97195.88;;;7.06;100.00
20023;BME280;10172;42.054;24.546;2023-01-27T10:28:16;97188.63;;;6.97;100.00
20023;BME280;10172;42.054;24.546;2023-01-27T10:36:38;97178.97;;;7.45;100.00
20023;BME280;10172;42.054;24.546;2023-01-27T10:44:16;97159.44;;;6.11;100.00
20023;BME280;10172;42.054;24.546;2023-01-27T10:49:22;97154.28;;;6.59;100.00
20023;BME280;10172;42.054;24.546;2023-01-27T11:00:00;97137.59;;;6.34;100.00
20023;BME280;10172;42.054;24.546;2023-01-27T11:05:17;97136.41;;;6.13;100.00
20023;BME280;10172;42.054;24.546;2023-01-27T11:08:12;97125.25;;;5.82;100.00
20023;BME280;10172;42.054;24.546;2023-01-27T11:10:42;97118.44;;;5.92;100.00
20023;BME280;10172;42.054;24.546;2023-01-27T11:13:30;97123.53;;;6.21;100.00
20023;BME280;10172;42.054;24.546;2023-01-27T11:15:58;97122.03;;;6.67;100.00
20023;BME280;10172;42.054;24.546;2023-01-27T11:18:27;97123.09;;;6.01;100.00
20023;BME280;10172;42.054;24.546;2023-01-27T11:20:57;97123.50;;;5.95;100.00
20023;BME280;10172;42.054;24.546;2023-01-27T11:23:28;97126.50;;;6.29;100.00
20023;BME280;10172;42.054;24.546;2023-01-27T11:28:46;97126.41;;;5.39;100.00
20023;BME280;10172;42.054;24.546;2023-01-27T11:31:36;97130.25;;;5.60;100.00
20023;BME280;10172;42.054;24.546;2023-01-27T11:36:57;97120.88;;;5.56;100.00
20023;BME280;10172;42.054;24.546;2023-01-27T11:39:26;97115.63;;;5.81;100.00
20023;BME280;10172;42.054;24.546;2023-01-27T11:41:56;97126.72;;;6.26;100.00
20023;BME280;10172;42.054;24.546;2023-01-27T11:44:33;97117.63;;;5.92;100.00
20023;BME280;10172;42.054;24.546;2023-01-27T11:47:01;97123.94;;;5.36;100.00
20023;BME280;10172;42.054;24.546;2023-01-27T11:49:34;97124.03;;;5.61;100.00
20023;BME280;10172;42.054;24.546;2023-01-27T11:52:08;97127.22;;;5.66;100.00
20023;BME280;10172;42.054;24.546;2023-01-27T11:54:43;97118.47;;;4.86;100.00
20023;BME280;10172;42.054;24.546;2023-01-27T11:57:21;97110.53;;;5.53;100.00
20023;BME280;10172;42.054;24.546;2023-01-27T11:59:50;97104.13;;;5.82;100.00
20023;BME280;10172;42.054;24.546;2023-01-27T12:05:27;97112.97;;;5.29;100.00
20023;BME280;10172;42.054;24.546;2023-01-27T12:10:33;97098.91;;;5.43;100.00
20023;BME280;10172;42.054;24.546;2023-01-27T12:13:18;97117.84;;;6.27;100.00
20023;BME280;10172;42.054;24.546;2023-01-27T12:16:03;97108.63;;;5.55;100.00
20023;BME280;10172;42.054;24.546;2023-01-27T12:18:34;97111.22;;;5.82;100.00
20023;BME280;10172;42.054;24.546;2023-01-27T12:21:11;97111.47;;;5.91;100.00
20023;BME280;10172;42.054;24.546;2023-01-27T12:23:50;97114.69;;;6.22;100.00
20023;BME280;10172;42.054;24.546;2023-01-27T12:26:29;97114.22;;;5.90;100.00
20023;BME280;10172;42.054;24.546;2023-01-27T12:28:58;97108.72;;;6.06;100.00
20023;BME280;10172;42.054;24.546;2023-01-27T12:31:30;97103.13;;;5.19;100.00
20023;BME280;10172;42.054;24.546;2023-01-27T12:36:25;97104.72;;;5.48;100.00
20023;BME280;10172;42.054;24.546;2023-01-27T12:38:53;97105.88;;;5.03;100.00
20023;BME280;10172;42.054;24.546;2023-01-27T12:41:27;97109.28;;;5.05;100.00
20023;BME280;10172;42.054;24.546;2023-01-27T12:43:55;97108.84;;;5.25;100.00
20023;BME280;10172;42.054;24.546;2023-01-27T12:46:24;97110.38;;;5.15;100.00
20023;BME280;10172;42.054;24.546;2023-01-27T12:48:54;97106.88;;;5.41;100.00
20023;BME280;10172;42.054;24.546;2023-01-27T12:51:39;97099.69;;;5.31;100.00
20023;BME280;10172;42.054;24.546;2023-01-27T12:56:40;97109.16;;;5.21;100.00
20023;BME280;10172;42.054;24.546;2023-01-27T12:59:12;97116.25;;;5.06;100.00
20023;BME280;10172;42.054;24.546;2023-01-27T13:01:38;97101.50;;;4.90;100.00
20023;BME280;10172;42.054;24.546;2023-01-27T13:04:18;97106.16;;;5.13;100.00
20023;BME280;10172;42.054;24.546;2023-01-27T13:12:21;97116.75;;;4.84;100.00
20023;BME280;10172;42.054;24.546;2023-01-27T13:14:53;97099.00;;;5.15;100.00
20023;BME280;10172;42.054;24.546;2023-01-27T13:17:42;97095.91;;;5.35;100.00
20023;BME280;10172;42.054;24.546;2023-01-27T13:22:44;97101.75;;;4.72;100.00
20023;BME280;10172;42.054;24.546;2023-01-27T13:25:20;97103.78;;;5.08;100.00
20023;BME280;10172;42.054;24.546;2023-01-27T13:27:48;97114.00;;;5.54;100.00
20023;BME280;10172;42.054;24.546;2023-01-27T13:30:39;97112.63;;;5.21;100.00
20023;BME280;10172;42.054;24.546;2023-01-27T13:33:32;97115.09;;;4.69;100.00
20023;BME280;10172;42.054;24.546;2023-01-27T13:36:14;97110.19;;;4.77;100.00
20023;BME280;10172;42.054;24.546;2023-01-27T13:41:45;97095.63;;;5.13;100.00
20023;BME280;10172;42.054;24.546;2023-01-27T13:44:35;97108.81;;;5.52;100.00
20023;BME280;10172;42.054;24.546;2023-01-27T13:47:09;97113.69;;;5.58;100.00
20023;BME280;10172;42.054;24.546;2023-01-27T13:49:42;97107.25;;;5.89;100.00
20023;BME280;10172;42.054;24.546;2023-01-27T13:52:10;97115.09;;;6.16;100.00
20023;BME280;10172;42.054;24.546;2023-01-27T13:54:37;97109.03;;;4.96;100.00
20023;BME280;10172;42.054;24.546;2023-01-27T13:57:26;97136.09;;;5.12;100.00
20023;BME280;10172;42.054;24.546;2023-01-27T14:00:40;97133.88;;;5.59;100.00
20023;BME280;10172;42.054;24.546;2023-01-27T14:24:56;97135.63;;;4.64;100.00
20023;BME280;10172;42.054;24.546;2023-01-27T14:27:41;97139.66;;;4.56;100.00
20023;BME280;10172;42.054;24.546;2023-01-27T14:30:21;97138.03;;;4.81;100.00
20023;BME280;10172;42.054;24.546;2023-01-27T14:33:04;97136.16;;;4.69;100.00
20023;BME280;10172;42.054;24.546;2023-01-27T14:35:43;97137.09;;;4.82;100.00
20023;BME280;10172;42.054;24.546;2023-01-27T14:38:35;97134.31;;;4.98;100.00
20023;BME280;10172;42.054;24.546;2023-01-27T14:41:26;97136.34;;;4.95;100.00
20023;BME280;10172;42.054;24.546;2023-01-27T14:44:05;97135.50;;;5.21;100.00
20023;BME280;10172;42.054;24.546;2023-01-27T14:51:54;97139.47;;;4.73;100.00
20023;BME280;10172;42.054;24.546;2023-01-27T14:57:07;97143.25;;;5.63;100.00
20023;BME280;10172;42.054;24.546;2023-01-27T15:02:46;97146.75;;;6.03;100.00
20023;BME280;10172;42.054;24.546;2023-01-27T15:05:26;97165.78;;;6.71;100.00
20023;BME280;10172;42.054;24.546;2023-01-27T15:08:17;97164.72;;;6.74;100.00
20023;BME280;10172;42.054;24.546;2023-01-27T15:22:32;97150.41;;;5.49;100.00
20023;BME280;10172;42.054;24.546;2023-01-27T15:27:37;97159.78;;;4.29;100.00
20023;BME280;10172;42.054;24.546;2023-01-27T15:30:19;97159.41;;;4.35;100.00
20023;BME280;10172;42.054;24.546;2023-01-27T15:32:45;97166.44;;;4.20;100.00
20023;BME280;10172;42.054;24.546;2023-01-27T15:35:38;97162.13;;;4.33;100.00
20023;BME280;10172;42.054;24.546;2023-01-27T15:43:28;97170.69;;;4.79;100.00
20023;BME280;10172;42.054;24.546;2023-01-27T15:45:55;97171.81;;;4.89;100.00
20023;BME280;10172;42.054;24.546;2023-01-27T15:48:29;97169.44;;;4.99;100.00
20023;BME280;10172;42.054;24.546;2023-01-27T15:51:05;97177.09;;;5.30;100.00
20023;BME280;10172;42.054;24.546;2023-01-27T15:53:51;97168.94;;;5.47;100.00
20023;BME280;10172;42.054;24.546;2023-01-27T15:56:18;97177.53;;;4.96;100.00
20023;BME280;10172;42.054;24.546;2023-01-27T15:58:58;97180.03;;;5.25;100.00
20023;BME280;10172;42.054;24.546;2023-01-27T16:01:30;97174.91;;;4.96;100.00
20023;BME280;10172;42.054;24.546;2023-01-27T16:06:28;97185.56;;;4.80;100.00
20023;BME280;10172;42.054;24.546;2023-01-27T16:09:04;97177.94;;;4.75;100.00
20023;BME280;10172;42.054;24.546;2023-01-27T16:22:40;97187.34;;;4.65;100.00